Time;durP1;ratioP1;P1;durP2;ratioP2;P2;SDS_P1;SDS_P2;PMS_P1;PMS_P2;Temp;Humidity;BMP_temperature;BMP_pressure;BME280_temperature;BME280_humidity;BME280_pressure;Samples;Min_cycle;Max_cycle;Signal;HPM_P1;HPM_P2
2022/03/14 00:00:10;;;;;;;69.97;27.77;;;-1.60;99.90;;;;;;4859084;29;20199;-80
2022/03/14 00:02:37;;;;;;;78.10;31.07;;;;;;;;;;4860523;29;20277;-80
2022/03/14 00:05:06;;;;;;;86.03;34.30;;;;;;;;;;4860030;29;20577;-81
2022/03/14 00:07:36;;;;;;;78.67;32.90;;;-1.60;99.90;;;;;;4860312;29;20184;-80
2022/03/14 00:10:06;;;;;;;74.00;30.17;;;-1.60;99.90;;;;;;4860889;29;20614;-80
2022/03/14 00:12:32;;;;;;;77.57;32.70;;;;;;;;;;4862972;29;20191;-80
2022/03/14 00:15:00;;;;;;;87.93;33.63;;;-1.60;99.90;;;;;;4847201;29;20194;-80
2022/03/14 00:17:26;;;;;;;99.73;35.10;;;;;;;;;;4862680;29;20183;-80
2022/03/14 00:19:54;;;;;;;97.43;36.23;;;-1.60;99.90;;;;;;4862920;29;20197;-81
2022/03/14 00:22:21;;;;;;;82.90;29.73;;;;;;;;;;4862876;29;20187;-80
2022/03/14 00:24:47;;;;;;;88.37;31.03;;;-1.30;99.90;;;;;;4862505;29;20186;-82
2022/03/14 00:27:14;;;;;;;81.70;29.17;;;;;;;;;;4847137;29;20210;-81
2022/03/14 00:29:40;;;;;;;84.37;29.80;;;;;;;;;;4863611;29;20277;-81
2022/03/14 00:32:07;;;;;;;90.57;31.07;;;-1.60;99.90;;;;;;4862132;29;20642;-80
2022/03/14 00:34:33;;;;;;;92.97;28.93;;;;;;;;;;4862411;29;20189;-81
2022/03/14 00:36:59;;;;;;;89.23;31.53;;;;;;;;;;4861897;29;20670;-81
2022/03/14 00:39:25;;;;;;;78.27;28.90;;;;;;;;;;4862622;29;20259;-81
2022/03/14 00:41:51;;;;;;;47.17;19.23;;;;;;;;;;4862112;29;20236;-82
2022/03/14 00:44:18;;;;;;;46.87;18.17;;;;;;;;;;4863478;29;20259;-81
2022/03/14 00:46:44;;;;;;;49.47;20.67;;;;;;;;;;4862355;29;20190;-81
2022/03/14 00:49:11;;;;;;;50.30;22.97;;;;;;;;;;4861798;29;20219;-81
2022/03/14 00:51:37;;;;;;;52.87;21.63;;;;;;;;;;4863218;29;20193;-80
2022/03/14 00:54:03;;;;;;;54.90;23.17;;;-1.80;99.90;;;;;;4861713;29;20722;-80
2022/03/14 00:56:29;;;;;;;47.83;21.50;;;;;;;;;;4862055;29;20186;-80
2022/03/14 00:58:55;;;;;;;48.40;21.20;;;;;;;;;;4863352;29;20201;-81
2022/03/14 01:01:22;;;;;;;42.33;18.37;;;;;;;;;;4862057;29;20632;-81
2022/03/14 01:03:48;;;;;;;40.80;18.23;;;;;;;;;;4861725;29;20194;-81
2022/03/14 01:06:14;;;;;;;36.70;16.83;;;;;;;;;;4846166;29;20734;-80
2022/03/14 01:08:40;;;;;;;35.63;16.27;;;;;;;;;;4861746;29;20321;-80
2022/03/14 01:11:06;;;;;;;39.03;16.70;;;;;;;;;;4846263;29;20202;-80
2022/03/14 01:13:32;;;;;;;35.07;16.50;;;;;;;;;;4863087;29;20216;-80
2022/03/14 01:15:59;;;;;;;26.70;14.63;;;;;;;;;;4861281;29;20229;-81
2022/03/14 01:18:25;;;;;;;39.43;19.77;;;;;;;;;;4861825;29;20249;-81
2022/03/14 01:20:51;;;;;;;49.93;22.13;;;;;;;;;;4862282;29;20207;-81
2022/03/14 01:23:18;;;;;;;70.67;27.23;;;-2.00;99.90;;;;;;4861347;29;20195;-81
2022/03/14 01:25:45;;;;;;;56.10;26.17;;;;;;;;;;4861506;29;20197;-81
2022/03/14 01:28:11;;;;;;;64.60;28.80;;;;;;;;;;4846114;29;20300;-80
2022/03/14 01:30:39;;;;;;;71.63;33.87;;;-2.00;99.90;;;;;;4861747;29;20194;-80
2022/03/14 01:33:06;;;;;;;51.43;24.23;;;;;;;;;;4862488;29;20580;-80
2022/03/14 01:35:32;;;;;;;51.60;23.57;;;;;;;;;;4861238;29;20200;-81
2022/03/14 01:37:58;;;;;;;35.23;17.77;;;;;;;;;;4862414;29;20181;-81
2022/03/14 01:40:25;;;;;;;34.20;16.17;;;-2.40;99.90;;;;;;4846039;29;20219;-81
2022/03/14 01:42:51;;;;;;;37.90;17.33;;;;;;;;;;4861354;29;20191;-81
2022/03/14 01:45:18;;;;;;;39.77;17.13;;;;;;;;;;4860876;29;21020;-80
2022/03/14 01:47:45;;;;;;;44.33;17.70;;;-2.20;99.90;;;;;;4862715;29;20627;-81
2022/03/14 01:50:13;;;;;;;39.93;17.83;;;-2.20;99.90;;;;;;4861079;29;20200;-81
2022/03/14 01:52:40;;;;;;;63.70;23.33;;;-2.20;99.90;;;;;;4845858;29;20275;-81
2022/03/14 01:55:07;;;;;;;59.17;22.23;;;-2.20;99.90;;;;;;4845466;29;20247;-80
2022/03/14 01:57:33;;;;;;;58.30;22.93;;;;;;;;;;4861169;29;20196;-80
2022/03/14 02:00:00;;;;;;;57.10;21.93;;;-2.20;99.90;;;;;;4862327;29;20195;-83
2022/03/14 02:02:26;;;;;;;49.10;21.33;;;;;;;;;;4862580;29;20226;-80
2022/03/14 02:04:53;;;;;;;51.33;20.80;;;;;;;;;;4861126;29;20198;-80
2022/03/14 02:07:20;;;;;;;39.07;18.40;;;;;;;;;;4862123;29;20190;-80
2022/03/14 02:09:46;;;;;;;40.63;18.87;;;;;;;;;;4864619;29;20215;-80
2022/03/14 02:12:13;;;;;;;43.17;18.23;;;;;;;;;;4882660;29;20206;-79
2022/03/14 02:14:42;;;;;;;40.13;17.73;;;;;;;;;;4881016;29;20189;-80
2022/03/14 02:17:13;;;;;;;37.33;18.17;;;-2.10;99.90;;;;;;4880980;29;20203;-80
2022/03/14 02:19:40;;;;;;;37.47;16.63;;;-2.20;99.90;;;;;;4877179;29;20210;-80
2022/03/14 02:22:13;;;;;;;50.33;19.47;;;-2.10;99.90;;;;;;4848664;29;20191;-80
2022/03/14 02:24:46;;;;;;;108.40;36.20;;;-2.10;99.90;;;;;;4860661;29;20579;-80
2022/03/14 02:27:13;;;;;;;106.03;36.50;;;;;;;;;;4861904;29;20655;-80
2022/03/14 02:29:39;;;;;;;79.00;32.87;;;;;;;;;;4861496;29;20202;-80
2022/03/14 02:32:05;;;;;;;41.37;20.40;;;-2.00;99.90;;;;;;4860803;29;20199;-81
2022/03/14 02:34:32;;;;;;;38.07;17.70;;;;;;;;;;4845218;29;20199;-80
2022/03/14 02:36:58;;;;;;;34.47;16.40;;;;;;;;;;4860304;29;20320;-79
2022/03/14 02:39:25;;;;;;;91.10;40.73;;;;;;;;;;4859925;29;20248;-80
2022/03/14 02:41:51;;;;;;;37.90;17.13;;;;;;;;;;4845035;29;20270;-80
2022/03/14 02:44:17;;;;;;;77.23;26.90;;;;;;;;;;4844349;29;20205;-80
2022/03/14 02:46:43;;;;;;;57.97;21.83;;;;;;;;;;4845246;29;20281;-80
2022/03/14 02:49:11;;;;;;;55.13;20.17;;;-2.20;99.90;;;;;;4859911;29;20297;-81
2022/03/14 02:51:38;;;;;;;88.30;26.87;;;-2.20;99.90;;;;;;4860188;29;20201;-80
2022/03/14 02:54:10;;;;;;;50.87;20.93;;;-2.10;99.90;;;;;;4861160;29;20699;-80
2022/03/14 02:56:37;;;;;;;70.97;24.80;;;-2.20;99.90;;;;;;4861017;29;20194;-80
2022/03/14 02:59:04;;;;;;;57.63;22.87;;;-2.20;99.90;;;;;;4860174;29;20199;-80
2022/03/14 03:01:30;;;;;;;38.27;17.83;;;;;;;;;;4860041;29;20638;-80
2022/03/14 03:03:56;;;;;;;26.63;14.30;;;;;;;;;;4859828;29;20183;-81
2022/03/14 03:06:23;;;;;;;37.37;15.17;;;;;;;;;;4860644;29;20210;-80
2022/03/14 03:08:53;;;;;;;52.77;22.27;;;-2.20;99.90;;;;;;4859791;29;20272;-81
2022/03/14 03:11:20;;;;;;;35.23;15.57;;;-2.20;99.90;;;;;;4861011;29;20246;-80
2022/03/14 03:13:47;;;;;;;28.80;15.47;;;-2.20;99.90;;;;;;4844596;29;20184;-80
2022/03/14 03:16:14;;;;;;;38.53;14.97;;;;;;;;;;4860606;29;20183;-80
2022/03/14 03:18:41;;;;;;;31.57;14.07;;;;;;;;;;4859635;29;20230;-80
2022/03/14 03:21:07;;;;;;;42.37;17.73;;;;;;;;;;4859740;29;20195;-80
2022/03/14 03:23:34;;;;;;;83.13;26.23;;;;;;;;;;4860557;29;20185;-80
2022/03/14 03:26:00;;;;;;;57.03;21.87;;;;;;;;;;4859769;29;20642;-80
2022/03/14 03:28:26;;;;;;;49.27;20.33;;;;;;;;;;4859208;29;20308;-80
2022/03/14 03:30:53;;;;;;;48.70;18.90;;;;;;;;;;4859499;29;20191;-81
2022/03/14 03:33:19;;;;;;;38.00;17.80;;;;;;;;;;4859206;29;20194;-80
2022/03/14 03:35:45;;;;;;;93.50;31.70;;;;;;;;;;4844256;29;20193;-80
2022/03/14 03:38:11;;;;;;;51.23;19.97;;;;;;;;;;4859247;29;20195;-83
2022/03/14 03:40:37;;;;;;;66.50;25.03;;;;;;;;;;4859636;29;20244;-80
2022/03/14 03:43:03;;;;;;;66.90;26.60;;;;;;;;;;4861243;29;20187;-80
2022/03/14 03:45:29;;;;;;;43.57;21.03;;;;;;;;;;4862961;29;20198;-80
2022/03/14 03:47:55;;;;;;;34.87;17.93;;;;;;;;;;4863227;29;20273;-80
2022/03/14 03:50:21;;;;;;;25.97;13.70;;;;;;;;;;4862869;29;20616;-80
2022/03/14 03:52:47;;;;;;;75.87;27.83;;;;;;;;;;4863119;29;20195;-80
2022/03/14 03:55:13;;;;;;;48.73;18.43;;;;;;;;;;4862994;29;20241;-83
2022/03/14 03:57:39;;;;;;;40.50;17.87;;;;;;;;;;4864526;29;20547;-80
2022/03/14 04:00:07;;;;;;;32.47;14.37;;;-2.30;99.90;;;;;;4863132;29;20196;-80
2022/03/14 04:02:38;;;;;;;32.13;14.33;;;-2.50;99.90;;;;;;4862935;29;20210;-80
2022/03/14 04:05:05;;;;;;;34.50;16.83;;;-2.50;99.90;;;;;;4863266;29;20204;-80
2022/03/14 04:07:33;;;;;;;28.07;13.37;;;;;;;;;;4847684;29;20190;-80
2022/03/14 04:09:59;;;;;;;31.90;13.73;;;;;;;;;;4863123;29;20275;-80
2022/03/14 04:12:26;;;;;;;23.87;11.80;;;-2.60;99.90;;;;;;4863024;29;20251;-81
2022/03/14 04:14:54;;;;;;;23.53;12.33;;;-2.60;99.90;;;;;;4862915;29;20683;-80
2022/03/14 04:17:20;;;;;;;28.37;13.50;;;;;;;;;;4862660;29;20190;-81
2022/03/14 04:19:48;;;;;;;31.87;14.93;;;;;;;;;;4863855;29;20193;-81
2022/03/14 04:22:14;;;;;;;29.03;14.07;;;;;;;;;;4863021;29;20191;-80
2022/03/14 04:24:40;;;;;;;38.77;14.83;;;;;;;;;;4864702;29;20289;-80
2022/03/14 04:27:06;;;;;;;26.33;12.57;;;;;;;;;;4863218;29;20198;-81
2022/03/14 04:29:32;;;;;;;38.43;19.87;;;;;;;;;;4863362;29;20221;-80
2022/03/14 04:31:58;;;;;;;26.33;12.47;;;;;;;;;;4848033;29;20643;-80
2022/03/14 04:34:24;;;;;;;31.63;14.50;;;;;;;;;;4862648;29;20200;-80
2022/03/14 04:36:50;;;;;;;39.50;17.57;;;;;;;;;;4863714;29;20589;-80
2022/03/14 04:39:17;;;;;;;38.90;14.27;;;-2.60;99.90;;;;;;4867013;29;20212;-79
2022/03/14 04:41:43;;;;;;;32.03;15.40;;;;;;;;;;4872999;29;20187;-80
2022/03/14 04:44:09;;;;;;;46.03;19.07;;;;;;;;;;4873865;29;20532;-80
2022/03/14 04:46:35;;;;;;;30.90;14.23;;;;;;;;;;4875638;29;20187;-80
2022/03/14 04:49:02;;;;;;;25.03;13.23;;;;;;;;;;4879200;29;20226;-80
2022/03/14 04:51:28;;;;;;;29.97;14.53;;;;;;;;;;4886680;29;20179;-84
2022/03/14 04:53:55;;;;;;;42.17;18.30;;;;;;;;;;4886757;29;20238;-80
2022/03/14 04:56:21;;;;;;;38.43;17.87;;;;;;;;;;4885030;29;20183;-83
2022/03/14 04:58:47;;;;;;;25.80;12.63;;;;;;;;;;4886687;29;20201;-80
2022/03/14 05:01:13;;;;;;;25.10;13.53;;;;;;;;;;4860441;29;20192;-80
2022/03/14 05:03:39;;;;;;;22.80;12.20;;;;;;;;;;4876115;29;20215;-80
2022/03/14 05:06:05;;;;;;;33.93;17.33;;;;;;;;;;4885094;29;20183;-81
2022/03/14 05:08:31;;;;;;;38.20;18.93;;;;;;;;;;4870778;29;20279;-82
2022/03/14 05:10:58;;;;;;;64.50;27.87;;;;;;;;;;4886342;29;20175;-80
2022/03/14 05:13:24;;;;;;;52.13;25.17;;;;;;;;;;4863396;29;20672;-81
2022/03/14 05:15:50;;;;;;;41.00;21.53;;;;;;;;;;4863258;29;20633;-80
2022/03/14 05:18:17;;;;;;;46.97;20.37;;;;;;;;;;4862847;29;20191;-80
2022/03/14 05:20:43;;;;;;;43.63;20.33;;;;;;;;;;4850915;29;20190;-83
2022/03/14 05:23:09;;;;;;;54.80;25.57;;;;;;;;;;4869612;29;20282;-81
2022/03/14 05:25:35;;;;;;;39.43;19.23;;;;;;;;;;4875238;29;20205;-80
2022/03/14 05:28:01;;;;;;;44.50;20.23;;;;;;;;;;4873836;29;20194;-81
2022/03/14 05:30:27;;;;;;;48.57;22.50;;;;;;;;;;4868688;29;20210;-80
2022/03/14 05:32:53;;;;;;;46.10;20.90;;;;;;;;;;4876237;29;20198;-81
2022/03/14 05:35:19;;;;;;;38.10;18.33;;;;;;;;;;4877713;29;20229;-80
2022/03/14 05:37:46;;;;;;;36.67;17.20;;;1.30;99.90;;;;;;4866056;29;20194;-81
2022/03/14 05:40:15;;;;;;;44.23;16.93;;;-2.00;99.90;;;;;;4865228;29;20222;-80
2022/03/14 05:42:43;;;;;;;27.97;14.37;;;-2.00;99.90;;;;;;4871177;29;20214;-81
2022/03/14 05:45:09;;;;;;;30.47;14.27;;;-2.00;99.90;;;;;;4873666;29;20212;-81
2022/03/14 05:47:35;;;;;;;28.53;15.10;;;;;;;;;;4873301;29;20201;-83
2022/03/14 05:50:01;;;;;;;24.77;13.13;;;;;;;;;;4855309;29;20223;-83
2022/03/14 05:52:29;;;;;;;26.60;13.23;;;;;;;;;;4871416;29;21086;-83
2022/03/14 05:54:55;;;;;;;25.73;13.93;;;;;;;;;;4865517;29;20332;-82
2022/03/14 05:57:21;;;;;;;25.97;14.53;;;;;;;;;;4871262;29;20710;-84
2022/03/14 05:59:50;;;;;;;31.67;14.83;;;;;;;;;;4853024;29;20667;-81
2022/03/14 06:02:21;;;;;;;32.30;14.83;;;-1.40;99.90;;;;;;4883979;29;20648;-80
2022/03/14 06:04:47;;;;;;;29.50;14.20;;;;;;;;;;4870911;29;20228;-80
2022/03/14 06:07:13;;;;;;;28.17;14.37;;;;;;;;;;4878271;29;20559;-81
2022/03/14 06:09:39;;;;;;;24.43;13.90;;;;;;;;;;4858117;29;20690;-82
2022/03/14 06:12:06;;;;;;;31.73;15.33;;;-0.80;99.90;;;;;;4858532;29;20366;-82
2022/03/14 06:14:32;;;;;;;25.27;14.03;;;;;;;;;;4857854;29;20233;-81
2022/03/14 06:16:59;;;;;;;29.07;15.17;;;;;;;;;;4852500;29;20728;-82
2022/03/14 06:19:25;;;;;;;25.10;13.23;;;;;;;;;;4855689;29;20827;-81
2022/03/14 06:21:51;;;;;;;25.47;12.93;;;;;;;;;;4879724;29;20208;-80
2022/03/14 06:24:17;;;;;;;32.23;14.23;;;;;;;;;;4867087;29;20272;-79
2022/03/14 06:26:43;;;;;;;27.63;12.60;;;;;;;;;;4870386;29;20190;-81
2022/03/14 06:29:10;;;;;;;29.67;14.63;;;;;;;;;;4877768;29;20215;-82
2022/03/14 06:31:36;;;;;;;35.67;15.27;;;;;;;;;;4882375;29;20211;-82
2022/03/14 06:34:02;;;;;;;29.60;14.17;;;;;;;;;;4876653;29;20280;-81
2022/03/14 06:36:29;;;;;;;29.47;14.50;;;0.40;99.90;;;;;;4876829;29;20204;-81
2022/03/14 06:38:59;;;;;;;42.83;17.50;;;;;;;;;;4882313;29;20233;-80
2022/03/14 06:41:26;;;;;;;34.00;14.33;;;0.60;99.90;;;;;;4866866;29;20239;-82
2022/03/14 06:43:53;;;;;;;23.17;11.70;;;;;;;;;;4871296;29;20205;-80
2022/03/14 06:46:22;;;;;;;27.50;12.37;;;0.60;99.90;;;;;;4855896;29;20201;-81
2022/03/14 06:48:49;;;;;;;21.77;10.73;;;;;;;;;;4863804;29;20302;-79
2022/03/14 06:51:15;;;;;;;48.90;24.73;;;;;;;;;;4873079;29;20252;-82
2022/03/14 06:53:41;;;;;;;43.67;24.47;;;;;;;;;;4849172;29;20248;-83
2022/03/14 06:56:08;;;;;;;25.77;13.43;;;;;;;;;;4851632;29;20194;-80
2022/03/14 06:58:34;;;;;;;29.40;13.20;;;;;;;;;;4856716;29;20222;-81
2022/03/14 07:01:01;;;;;;;28.77;15.23;;;;;;;;;;4859804;29;20218;-82
2022/03/14 07:03:27;;;;;;;91.00;42.73;;;;;;;;;;4861121;29;20277;-81
2022/03/14 07:05:54;;;;;;;49.23;24.40;;;;;;;;;;4867421;29;20732;-81
2022/03/14 07:08:20;;;;;;;26.20;12.37;;;;;;;;;;4869489;29;20244;-81
2022/03/14 07:10:46;;;;;;;22.43;13.73;;;;;;;;;;4869242;29;21109;-83
2022/03/14 07:13:12;;;;;;;29.67;15.07;;;;;;;;;;4860648;29;20222;-79
2022/03/14 07:15:38;;;;;;;37.77;14.90;;;;;;;;;;4863941;29;20202;-81
2022/03/14 07:18:04;;;;;;;65.23;34.60;;;;;;;;;;4855297;29;20212;-81
2022/03/14 07:20:30;;;;;;;46.43;21.13;;;1.60;99.90;;;;;;4858030;29;20196;-81
2022/03/14 07:22:58;;;;;;;22.93;11.87;;;1.60;99.90;;;;;;4857206;29;20186;-80
2022/03/14 07:25:25;;;;;;;26.70;12.03;;;;;;;;;;4869814;29;20193;-82
2022/03/14 07:27:52;;;;;;;25.20;12.90;;;1.80;99.90;;;;;;4871895;29;20241;-79
2022/03/14 07:30:18;;;;;;;23.07;12.23;;;;;;;;;;4871915;29;20228;-82
2022/03/14 07:32:44;;;;;;;26.83;13.10;;;;;;;;;;4866107;29;20706;-82
2022/03/14 07:35:10;;;;;;;30.30;14.63;;;;;;;;;;4859749;29;20200;-80
2022/03/14 07:37:37;;;;;;;33.20;14.87;;;;;;;;;;4863299;29;20231;-79
2022/03/14 07:40:03;;;;;;;24.90;13.37;;;1.70;99.90;;;;;;4852204;29;20298;-80
2022/03/14 07:42:29;;;;;;;24.60;11.93;;;;;;;;;;4860400;29;20197;-81
2022/03/14 07:44:55;;;;;;;22.60;11.37;;;;;;;;;;4869463;29;20197;-82
2022/03/14 07:47:22;;;;;;;22.13;11.13;;;;;;;;;;4873853;29;20194;-81
2022/03/14 07:49:48;;;;;;;28.07;12.47;;;;;;;;;;4869343;29;20229;-80
2022/03/14 07:52:14;;;;;;;20.17;11.67;;;;;;;;;;4871786;29;20688;-80
2022/03/14 07:54:40;;;;;;;23.90;12.17;;;;;;;;;;4860988;29;20232;-80
2022/03/14 07:57:06;;;;;;;23.97;11.80;;;;;;;;;;4866913;29;20202;-81
2022/03/14 07:59:32;;;;;;;23.93;12.10;;;;;;;;;;4866211;29;20200;-80
2022/03/14 08:01:58;;;;;;;19.27;11.27;;;;;;;;;;4878040;29;20213;-81
2022/03/14 08:04:24;;;;;;;22.30;12.50;;;;;;;;;;4876302;29;20234;-80
2022/03/14 08:06:51;;;;;;;21.20;11.77;;;;;;;;;;4880815;29;20212;-81
2022/03/14 08:09:18;;;;;;;22.77;12.60;;;;;;;;;;4874890;29;20571;-81
2022/03/14 08:11:44;;;;;;;23.07;13.07;;;;;;;;;;4858923;29;20194;-80
2022/03/14 08:14:10;;;;;;;19.40;11.37;;;;;;;;;;4859277;29;20204;-78
2022/03/14 08:16:36;;;;;;;20.47;11.53;;;;;;;;;;4867936;29;20655;-79
2022/03/14 08:19:03;;;;;;;24.73;12.37;;;;;;;;;;4869620;29;20195;-79
2022/03/14 08:21:29;;;;;;;24.20;12.07;;;;;;;;;;4869031;29;20185;-80
2022/03/14 08:23:55;;;;;;;23.03;12.97;;;;;;;;;;4869845;29;20199;-79
2022/03/14 08:26:22;;;;;;;22.50;11.83;;;;;;;;;;4872420;29;20598;-80
2022/03/14 08:28:48;;;;;;;22.27;12.03;;;;;;;;;;4868972;29;20224;-80
2022/03/14 08:31:21;;;;;;;25.13;13.57;;;3.70;99.90;;;;;;4871211;29;20207;-81
2022/03/14 08:33:47;;;;;;;27.63;14.00;;;;;;;;;;4856956;29;20197;-81
2022/03/14 08:36:13;;;;;;;26.07;13.07;;;;;;;;;;4871447;29;20190;-80
2022/03/14 08:38:40;;;;;;;26.50;15.23;;;;;;;;;;4846935;29;20199;-81
2022/03/14 08:41:07;;;;;;;25.20;13.43;;;;;;;;;;4862348;29;20200;-80
2022/03/14 08:43:33;;;;;;;22.77;12.60;;;;;;;;;;4863644;29;20176;-81
2022/03/14 08:45:59;;;;;;;26.93;13.20;;;;;;;;;;4847311;29;20286;-78
2022/03/14 08:48:25;;;;;;;26.63;14.67;;;;;;;;;;4863334;29;20238;-79
2022/03/14 08:50:51;;;;;;;24.60;14.17;;;;;;;;;;4861739;29;20198;-80
2022/03/14 08:53:17;;;;;;;26.20;14.53;;;;;;;;;;4861641;29;20269;-80
2022/03/14 08:55:44;;;;;;;27.70;12.93;;;;;;;;;;4846664;29;20192;-80
2022/03/14 08:58:10;;;;;;;23.30;13.80;;;;;;;;;;4861911;29;20186;-80
2022/03/14 09:00:36;;;;;;;27.87;13.37;;;;;;;;;;4867153;29;20251;-81
2022/03/14 09:03:02;;;;;;;30.37;14.63;;;;;;;;;;4856646;29;20191;-82
2022/03/14 09:05:28;;;;;;;29.10;14.23;;;;;;;;;;4871311;29;20195;-78
2022/03/14 09:07:54;;;;;;;24.40;13.47;;;;;;;;;;4869857;29;20201;-79
2022/03/14 09:10:21;;;;;;;25.50;13.97;;;;;;;;;;4870716;29;20224;-80
2022/03/14 09:12:47;;;;;;;28.30;13.47;;;;;;;;;;4857261;29;20195;-79
2022/03/14 09:15:13;;;;;;;26.97;13.63;;;;;;;;;;4877411;29;20188;-80
2022/03/14 09:17:55;;;;;;;26.00;12.77;;;5.10;99.90;;;;;;4873910;29;20232;-80
2022/03/14 09:20:21;;;;;;;30.43;13.77;;;;;;;;;;4872364;29;20714;-80
2022/03/14 09:22:47;;;;;;;31.70;15.20;;;;;;;;;;4868559;29;20180;-81
2022/03/14 09:25:14;;;;;;;27.53;13.23;;;5.30;99.90;;;;;;4858108;29;20194;-79
2022/03/14 09:27:43;;;;;;;33.23;15.93;;;5.40;99.90;;;;;;4871670;29;20189;-80
2022/03/14 09:30:11;;;;;;;37.53;18.63;;;5.40;99.90;;;;;;4871509;29;20245;-81
2022/03/14 09:32:37;;;;;;;33.47;16.83;;;;;;;;;;4863951;29;20205;-81
2022/03/14 09:35:04;;;;;;;33.43;15.37;;;5.60;99.90;;;;;;4845195;29;20191;-81
2022/03/14 09:37:30;;;;;;;29.53;14.70;;;;;;;;;;4863128;29;20201;-81
2022/03/14 09:39:57;;;;;;;32.70;17.30;;;;;;;;;;4860966;29;20189;-80
2022/03/14 09:42:24;;;;;;;35.63;17.10;;;5.90;99.90;;;;;;4862032;29;20185;-81
2022/03/14 09:44:53;;;;;;;32.03;17.73;;;;;;;;;;4862175;29;20192;-80
2022/03/14 09:47:21;;;;;;;26.00;14.47;;;;;;;;;;4862236;29;20182;-79
2022/03/14 09:49:47;;;;;;;26.43;14.30;;;6.20;96.70;;;;;;4861971;29;20210;-80
2022/03/14 09:52:14;;;;;;;27.77;13.80;;;;;;;;;;4860869;29;20289;-79
2022/03/14 09:54:40;;;;;;;24.80;14.30;;;;;;;;;;4860546;29;20241;-79
2022/03/14 09:57:06;;;;;;;26.07;14.20;;;;;;;;;;4864373;29;20199;-80
2022/03/14 09:59:32;;;;;;;30.50;15.97;;;;;;;;;;4852709;29;20260;-79
2022/03/14 10:01:58;;;;;;;29.53;15.63;;;;;;;;;;4860860;29;20247;-80
2022/03/14 10:04:24;;;;;;;29.07;14.40;;;7.00;97.00;;;;;;4860552;29;20191;-81
2022/03/14 10:06:50;;;;;;;28.13;15.83;;;;;;;;;;4845510;29;20193;-80
2022/03/14 10:09:16;;;;;;;24.10;14.10;;;;;;;;;;4860862;29;20226;-79
2022/03/14 10:11:42;;;;;;;30.23;15.40;;;7.20;94.00;;;;;;4861017;29;20187;-80
2022/03/14 10:14:11;;;;;;;31.20;14.43;;;;;;;;;;4860495;29;20190;-80
2022/03/14 10:16:38;;;;;;;24.20;14.17;;;;;;;;;;4860549;29;20230;-80
2022/03/14 10:19:07;;;;;;;27.90;14.53;;;7.30;90.50;;;;;;4859689;29;20288;-80
2022/03/14 10:21:38;;;;;;;26.63;14.80;;;7.30;98.20;;;;;;4864013;29;20191;-80
2022/03/14 10:24:09;;;;;;;27.43;14.43;;;7.30;94.60;;;;;;4868290;29;20678;-80
2022/03/14 10:26:39;;;;;;;29.33;16.93;;;7.70;90.30;;;;;;4875501;29;20224;-80
2022/03/14 10:29:10;;;;;;;25.73;14.40;;;;;;;;;;4879066;29;20344;-80
2022/03/14 10:31:42;;;;;;;25.17;13.73;;;7.90;85.50;;;;;;4861193;29;20217;-82
2022/03/14 10:34:11;;;;;;;27.50;13.20;;;7.90;86.30;;;;;;4869207;29;20197;-80
2022/03/14 10:36:47;;;;;;;26.37;14.77;;;8.10;93.60;;;;;;4871424;29;20560;-80
2022/03/14 10:39:18;;;;;;;27.17;14.60;;;7.90;88.60;;;;;;4867327;29;20197;-81
2022/03/14 10:41:46;;;;;;;25.20;13.40;;;8.20;80.90;;;;;;4867440;29;20189;-80
2022/03/14 10:44:22;;;;;;;21.50;12.57;;;8.40;80.20;;;;;;4868235;29;20696;-81
2022/03/14 10:46:48;;;;;;;27.30;15.13;;;;;;;;;;4865648;29;20643;-79
2022/03/14 10:49:15;;;;;;;23.90;14.37;;;9.00;91.60;;;;;;4856827;29;20213;-80
2022/03/14 10:52:17;;;;;;;25.30;13.73;;;8.50;84.90;;;;;;4865910;29;20198;-80
2022/03/14 10:54:43;;;;;;;24.40;14.37;;;;;;;;;;4850521;29;20233;-80
2022/03/14 10:57:12;;;;;;;23.20;13.03;;;8.40;90.50;;;;;;4875163;29;20193;-80
2022/03/14 10:59:42;;;;;;;26.53;12.97;;;8.50;76.90;;;;;;4875046;29;20197;-80
2022/03/14 11:02:14;;;;;;;22.90;13.53;;;8.40;75.80;;;;;;4874163;29;20197;-80
2022/03/14 11:04:54;;;;;;;23.33;13.30;;;8.10;78.70;;;;;;4866503;29;20179;-80
2022/03/14 11:07:25;;;;;;;22.10;13.20;;;8.60;76.00;;;;;;4866289;29;20300;-79
2022/03/14 11:09:56;;;;;;;27.17;15.10;;;8.70;75.60;;;;;;4872769;29;20205;-79
2022/03/14 11:12:24;;;;;;;26.67;13.93;;;8.90;73.40;;;;;;4858166;29;20218;-79
2022/03/14 11:14:57;;;;;;;24.73;13.53;;;9.00;73.90;;;;;;4869328;29;20719;-80
2022/03/14 11:17:33;;;;;;;31.97;16.20;;;9.10;72.20;;;;;;4869481;29;20185;-81
2022/03/14 11:20:00;;;;;;;26.07;13.47;;;;;;;;;;4870273;29;20186;-80
2022/03/14 11:22:27;;;;;;;24.73;13.83;;;9.20;71.90;;;;;;4875126;29;20183;-81
2022/03/14 11:24:56;;;;;;;24.33;15.00;;;9.10;71.10;;;;;;4874483;29;20213;-81
2022/03/14 11:27:32;;;;;;;26.47;13.23;;;9.10;72.40;;;;;;4878340;29;20186;-81
2022/03/14 11:30:09;;;;;;;22.23;13.83;;;9.40;88.30;;;;;;4867933;29;20269;-82
2022/03/14 11:32:38;;;;;;;26.90;15.07;;;;;;;;;;4867593;29;20214;-82
2022/03/14 11:35:06;;;;;;;23.67;14.43;;;9.10;81.30;;;;;;4860727;29;20259;-81
2022/03/14 11:37:34;;;;;;;23.77;13.90;;;9.40;70.40;;;;;;4862163;29;20206;-81
2022/03/14 11:40:03;;;;;;;21.00;13.20;;;9.40;69.10;;;;;;4865155;29;20189;-81
2022/03/14 11:42:29;;;;;;;26.40;13.80;;;;;;;;;;4864651;29;20194;-81
2022/03/14 11:44:55;;;;;;;25.47;14.27;;;9.40;68.80;;;;;;4865549;29;20187;-80
2022/03/14 11:47:23;;;;;;;27.43;13.47;;;9.40;67.10;;;;;;4867950;29;20661;-81
2022/03/14 11:49:49;;;;;;;22.30;12.40;;;;;;;;;;4869732;29;20232;-81
2022/03/14 11:52:20;;;;;;;23.90;13.37;;;9.40;68.10;;;;;;4871399;29;20240;-80
2022/03/14 11:55:00;;;;;;;23.90;13.23;;;9.40;68.90;;;;;;4867815;29;20237;-80
2022/03/14 11:57:36;;;;;;;21.50;12.77;;;9.70;83.90;;;;;;4868986;29;20597;-81
2022/03/14 12:00:21;;;;;;;24.33;13.10;;;9.70;67.60;;;;;;4865669;29;20644;-81
2022/03/14 12:02:50;;;;;;;23.63;13.20;;;;;;;;;;4870568;29;20182;-81
2022/03/14 12:05:42;;;;;;;23.27;13.80;;;9.50;68.30;;;;;;4870289;29;20197;-81
2022/03/14 12:08:14;;;;;;;25.03;13.53;;;9.60;66.60;;;;;;4870021;29;20218;-81
2022/03/14 12:10:41;;;;;;;24.40;13.80;;;9.90;82.90;;;;;;4872375;29;20178;-81
2022/03/14 12:13:07;;;;;;;23.50;13.73;;;;;;;;;;4868751;29;20187;-81
2022/03/14 12:15:41;;;;;;;21.87;13.10;;;9.70;66.40;;;;;;4860868;29;20189;-79
2022/03/14 12:18:27;;;;;;;28.37;14.27;;;10.00;65.10;;;;;;4862630;29;20187;-81
2022/03/14 12:21:03;;;;;;;28.00;13.37;;;10.00;63.30;;;;;;4862794;29;20216;-80
2022/03/14 12:23:34;;;;;;;27.63;13.90;;;10.00;62.90;;;;;;4862140;29;20330;-81
2022/03/14 12:26:01;;;;;;;21.97;11.93;;;10.10;63.70;;;;;;4860811;29;20186;-81
2022/03/14 12:28:27;;;;;;;23.40;12.57;;;;;;;;;;4861996;29;20270;-82
2022/03/14 12:31:13;;;;;;;21.00;11.60;;;10.80;74.50;;;;;;4864290;29;20250;-83
2022/03/14 12:33:39;;;;;;;23.47;13.13;;;;;;;;;;4853859;29;20544;-81
2022/03/14 12:36:23;;;;;;;20.43;11.57;;;10.60;77.20;;;;;;4867006;29;20615;-81
2022/03/14 12:39:08;;;;;;;25.23;13.03;;;10.80;60.60;;;;;;4870616;29;20194;-81
2022/03/14 12:41:35;;;;;;;22.20;13.23;;;;;;;;;;4878255;29;20206;-83
2022/03/14 12:44:01;;;;;;;22.53;12.30;;;;;;;;;;4873359;29;20183;-82
2022/03/14 12:46:28;;;;;;;32.27;16.27;;;11.00;60.80;;;;;;4861233;29;20186;-81
2022/03/14 12:48:56;;;;;;;21.10;12.03;;;11.10;59.20;;;;;;4861535;29;20225;-81
2022/03/14 12:51:27;;;;;;;21.27;12.37;;;11.50;77.40;;;;;;4872823;29;20196;-81
2022/03/14 12:53:57;;;;;;;24.13;14.35;;;11.60;62.80;;;;;;4872000;29;20230;-82
2022/03/14 12:56:30;;;;;;;27.00;14.13;;;11.80;62.40;;;;;;4868234;29;20551;-81
2022/03/14 12:58:59;;;;;;;25.87;14.07;;;11.90;75.00;;;;;;4873930;29;20293;-81
2022/03/14 13:01:27;;;;;;;27.73;13.00;;;11.90;57.70;;;;;;4870153;29;20221;-81
2022/03/14 13:03:53;;;;;;;23.20;12.68;;;12.00;67.70;;;;;;4870748;29;20258;-82
2022/03/14 13:06:28;;;;;;;30.98;15.20;;;12.10;57.50;;;;;;4864698;29;20219;-83
2022/03/14 13:08:54;;;;;;;20.75;12.88;;;;;;;;;;4854351;29;20206;-83
2022/03/14 13:11:20;;;;;;;23.80;13.93;;;;;;;;;;4869168;29;20190;-82
2022/03/14 13:13:46;;;;;;;25.52;13.65;;;;;;;;;;4855820;29;20194;-84
2022/03/14 13:16:14;;;;;;;28.45;13.57;;;12.80;54.20;;;;;;4866683;29;20213;-82
2022/03/14 13:18:46;;;;;;;26.08;12.63;;;13.00;53.90;;;;;;4868747;29;20182;-82
2022/03/14 13:21:12;;;;;;;26.17;12.40;;;13.60;69.20;;;;;;4868352;29;20202;-81
2022/03/14 13:23:38;;;;;;;20.92;12.35;;;;;;;;;;4870065;29;20182;-81
2022/03/14 13:26:04;;;;;;;23.65;12.50;;;14.40;67.00;;;;;;4866613;29;20175;-82
2022/03/14 13:28:32;;;;;;;19.67;11.75;;;14.80;50.70;;;;;;4869758;29;20190;-83
2022/03/14 13:31:01;;;;;;;26.30;11.95;;;15.00;49.90;;;;;;4867046;29;20193;-83
2022/03/14 13:33:50;;;;;;;23.25;12.73;;;14.80;64.40;;;;;;4880533;29;20179;-83
2022/03/14 13:36:16;;;;;;;27.42;12.90;;;15.50;48.90;;;;;;4872186;29;20186;-81